sensor_id;sensor_type;location;lat;lon;timestamp;temperature;humidity
41884;DHT22;27566;50.930;5.328;2023-07-24T00:00:20;19.70;90.90
41884;DHT22;27566;50.930;5.328;2023-07-24T00:02:47;19.70;91.00
41884;DHT22;27566;50.930;5.328;2023-07-24T00:05:13;19.70;91.00
41884;DHT22;27566;50.930;5.328;2023-07-24T00:07:44;19.80;91.00
41884;DHT22;27566;50.930;5.328;2023-07-24T00:10:10;19.90;91.00
41884;DHT22;27566;50.930;5.328;2023-07-24T00:12:35;19.90;91.00
41884;DHT22;27566;50.930;5.328;2023-07-24T00:15:04;19.90;90.80
41884;DHT22;27566;50.930;5.328;2023-07-24T00:17:30;20.00;90.70
41884;DHT22;27566;50.930;5.328;2023-07-24T00:20:01;20.00;90.60
41884;DHT22;27566;50.930;5.328;2023-07-24T00:22:27;20.00;90.50
41884;DHT22;27566;50.930;5.328;2023-07-24T00:24:53;20.10;90.40
41884;DHT22;27566;50.930;5.328;2023-07-24T00:27:18;20.10;90.30
41884;DHT22;27566;50.930;5.328;2023-07-24T00:29:44;20.10;90.20
41884;DHT22;27566;50.930;5.328;2023-07-24T00:32:10;20.10;90.30
41884;DHT22;27566;50.930;5.328;2023-07-24T00:34:36;20.10;90.30
41884;DHT22;27566;50.930;5.328;2023-07-24T00:37:01;20.00;90.30
41884;DHT22;27566;50.930;5.328;2023-07-24T00:39:27;20.10;90.30
41884;DHT22;27566;50.930;5.328;2023-07-24T00:41:55;20.10;90.30
41884;DHT22;27566;50.930;5.328;2023-07-24T00:44:21;20.10;90.30
41884;DHT22;27566;50.930;5.328;2023-07-24T00:46:47;20.20;90.30
41884;DHT22;27566;50.930;5.328;2023-07-24T00:49:13;20.20;90.20
41884;DHT22;27566;50.930;5.328;2023-07-24T00:51:39;20.20;90.20
41884;DHT22;27566;50.930;5.328;2023-07-24T00:54:06;20.20;90.10
41884;DHT22;27566;50.930;5.328;2023-07-24T00:56:32;20.20;90.10
41884;DHT22;27566;50.930;5.328;2023-07-24T00:58:58;20.20;90.10
41884;DHT22;27566;50.930;5.328;2023-07-24T01:01:25;20.30;90.10
41884;DHT22;27566;50.930;5.328;2023-07-24T01:03:52;20.30;90.10
41884;DHT22;27566;50.930;5.328;2023-07-24T01:06:18;20.30;90.00
41884;DHT22;27566;50.930;5.328;2023-07-24T01:08:44;20.30;89.60
41884;DHT22;27566;50.930;5.328;2023-07-24T01:11:15;20.40;89.60
41884;DHT22;27566;50.930;5.328;2023-07-24T01:16:37;20.40;89.50
41884;DHT22;27566;50.930;5.328;2023-07-24T01:19:16;20.40;89.60
41884;DHT22;27566;50.930;5.328;2023-07-24T01:27:20;20.40;89.10
41884;DHT22;27566;50.930;5.328;2023-07-24T01:29:46;20.40;89.20
41884;DHT22;27566;50.930;5.328;2023-07-24T01:32:12;20.40;89.30
41884;DHT22;27566;50.930;5.328;2023-07-24T01:34:38;20.40;89.20
41884;DHT22;27566;50.930;5.328;2023-07-24T01:37:04;20.40;89.30
41884;DHT22;27566;50.930;5.328;2023-07-24T01:39:29;20.40;89.30
41884;DHT22;27566;50.930;5.328;2023-07-24T01:41:55;20.40;89.30
41884;DHT22;27566;50.930;5.328;2023-07-24T01:44:21;20.40;89.20
41884;DHT22;27566;50.930;5.328;2023-07-24T01:46:48;20.40;89.40
41884;DHT22;27566;50.930;5.328;2023-07-24T01:49:14;20.40;89.30
41884;DHT22;27566;50.930;5.328;2023-07-24T01:51:40;20.40;89.20
41884;DHT22;27566;50.930;5.328;2023-07-24T01:54:06;20.40;89.30
41884;DHT22;27566;50.930;5.328;2023-07-24T01:56:32;20.40;89.10
41884;DHT22;27566;50.930;5.328;2023-07-24T01:58:57;20.40;89.10
41884;DHT22;27566;50.930;5.328;2023-07-24T02:01:23;20.40;89.00
41884;DHT22;27566;50.930;5.328;2023-07-24T02:03:49;20.40;88.90
41884;DHT22;27566;50.930;5.328;2023-07-24T02:06:14;20.40;89.50
41884;DHT22;27566;50.930;5.328;2023-07-24T02:08:40;20.30;88.90
41884;DHT22;27566;50.930;5.328;2023-07-24T02:11:27;20.30;88.50
41884;DHT22;27566;50.930;5.328;2023-07-24T02:13:53;20.30;88.90
41884;DHT22;27566;50.930;5.328;2023-07-24T02:16:18;20.20;88.90
41884;DHT22;27566;50.930;5.328;2023-07-24T02:18:45;20.20;88.70
41884;DHT22;27566;50.930;5.328;2023-07-24T02:21:11;20.20;88.90
41884;DHT22;27566;50.930;5.328;2023-07-24T02:23:36;20.20;88.90
41884;DHT22;27566;50.930;5.328;2023-07-24T02:26:02;20.10;89.40
41884;DHT22;27566;50.930;5.328;2023-07-24T02:28:28;20.10;89.30
41884;DHT22;27566;50.930;5.328;2023-07-24T02:30:54;20.10;89.60
41884;DHT22;27566;50.930;5.328;2023-07-24T02:33:23;20.10;89.60
41884;DHT22;27566;50.930;5.328;2023-07-24T02:35:51;20.10;89.70
41884;DHT22;27566;50.930;5.328;2023-07-24T02:38:17;20.10;89.60
41884;DHT22;27566;50.930;5.328;2023-07-24T02:40:44;20.10;89.50
41884;DHT22;27566;50.930;5.328;2023-07-24T02:43:10;20.10;89.50
41884;DHT22;27566;50.930;5.328;2023-07-24T02:45:37;20.10;89.50
41884;DHT22;27566;50.930;5.328;2023-07-24T02:48:03;20.10;89.40
41884;DHT22;27566;50.930;5.328;2023-07-24T02:50:29;20.10;89.50
41884;DHT22;27566;50.930;5.328;2023-07-24T02:52:55;20.10;89.50
41884;DHT22;27566;50.930;5.328;2023-07-24T02:55:20;20.10;89.70
41884;DHT22;27566;50.930;5.328;2023-07-24T02:57:46;20.10;89.50
41884;DHT22;27566;50.930;5.328;2023-07-24T03:00:12;20.10;89.50
41884;DHT22;27566;50.930;5.328;2023-07-24T03:02:39;20.10;89.40
41884;DHT22;27566;50.930;5.328;2023-07-24T03:05:05;20.00;89.60
41884;DHT22;27566;50.930;5.328;2023-07-24T03:07:31;20.00;89.80
41884;DHT22;27566;50.930;5.328;2023-07-24T03:09:57;20.00;89.80
41884;DHT22;27566;50.930;5.328;2023-07-24T03:12:23;19.90;90.00
41884;DHT22;27566;50.930;5.328;2023-07-24T03:14:49;19.80;90.20
41884;DHT22;27566;50.930;5.328;2023-07-24T03:17:15;19.80;90.30
41884;DHT22;27566;50.930;5.328;2023-07-24T03:19:41;19.80;90.40
41884;DHT22;27566;50.930;5.328;2023-07-24T03:22:07;19.70;90.40
41884;DHT22;27566;50.930;5.328;2023-07-24T03:24:34;19.70;90.50
41884;DHT22;27566;50.930;5.328;2023-07-24T03:27:00;19.70;90.50
41884;DHT22;27566;50.930;5.328;2023-07-24T03:29:28;19.70;90.60
41884;DHT22;27566;50.930;5.328;2023-07-24T03:31:54;19.80;90.60
41884;DHT22;27566;50.930;5.328;2023-07-24T03:34:20;19.80;90.50
41884;DHT22;27566;50.930;5.328;2023-07-24T03:36:46;19.80;90.40
41884;DHT22;27566;50.930;5.328;2023-07-24T03:39:12;19.80;90.30
41884;DHT22;27566;50.930;5.328;2023-07-24T03:41:38;19.90;90.30
41884;DHT22;27566;50.930;5.328;2023-07-24T03:44:04;19.80;90.30
41884;DHT22;27566;50.930;5.328;2023-07-24T03:46:32;19.80;90.40
41884;DHT22;27566;50.930;5.328;2023-07-24T03:48:57;19.90;90.40
41884;DHT22;27566;50.930;5.328;2023-07-24T03:51:23;19.90;90.40
41884;DHT22;27566;50.930;5.328;2023-07-24T03:53:49;19.90;90.40
41884;DHT22;27566;50.930;5.328;2023-07-24T03:56:15;19.90;90.20
41884;DHT22;27566;50.930;5.328;2023-07-24T03:58:40;19.90;90.20
41884;DHT22;27566;50.930;5.328;2023-07-24T04:01:07;19.90;90.20
41884;DHT22;27566;50.930;5.328;2023-07-24T04:03:34;19.90;90.20
41884;DHT22;27566;50.930;5.328;2023-07-24T04:06:00;19.80;90.20
41884;DHT22;27566;50.930;5.328;2023-07-24T04:08:34;19.80;90.20
41884;DHT22;27566;50.930;5.328;2023-07-24T04:11:00;19.80;90.30
41884;DHT22;27566;50.930;5.328;2023-07-24T04:13:26;19.80;90.20
41884;DHT22;27566;50.930;5.328;2023-07-24T04:15:51;19.80;90.20
41884;DHT22;27566;50.930;5.328;2023-07-24T04:18:17;19.90;90.20
41884;DHT22;27566;50.930;5.328;2023-07-24T04:20:43;19.90;90.20
41884;DHT22;27566;50.930;5.328;2023-07-24T04:23:08;19.90;90.20
41884;DHT22;27566;50.930;5.328;2023-07-24T04:25:34;19.80;90.10
41884;DHT22;27566;50.930;5.328;2023-07-24T04:28:00;19.80;90.20
41884;DHT22;27566;50.930;5.328;2023-07-24T04:30:32;19.80;90.30
41884;DHT22;27566;50.930;5.328;2023-07-24T04:32:58;19.80;90.20
41884;DHT22;27566;50.930;5.328;2023-07-24T04:35:24;19.80;90.20
41884;DHT22;27566;50.930;5.328;2023-07-24T04:37:49;19.80;90.20
41884;DHT22;27566;50.930;5.328;2023-07-24T04:40:16;19.80;90.30
41884;DHT22;27566;50.930;5.328;2023-07-24T04:42:42;19.80;90.20
41884;DHT22;27566;50.930;5.328;2023-07-24T04:45:08;19.80;90.20
41884;DHT22;27566;50.930;5.328;2023-07-24T04:47:34;19.80;90.20
41884;DHT22;27566;50.930;5.328;2023-07-24T04:50:02;19.90;90.30
41884;DHT22;27566;50.930;5.328;2023-07-24T04:52:28;19.90;90.30
41884;DHT22;27566;50.930;5.328;2023-07-24T04:54:54;20.00;90.30
41884;DHT22;27566;50.930;5.328;2023-07-24T04:57:19;20.10;90.10
41884;DHT22;27566;50.930;5.328;2023-07-24T04:59:45;20.20;90.30
41884;DHT22;27566;50.930;5.328;2023-07-24T05:02:11;20.30;90.50
41884;DHT22;27566;50.930;5.328;2023-07-24T05:04:42;20.70;90.30
41884;DHT22;27566;50.930;5.328;2023-07-24T05:07:08;20.90;89.30
41884;DHT22;27566;50.930;5.328;2023-07-24T05:09:33;20.90;88.60
41884;DHT22;27566;50.930;5.328;2023-07-24T05:11:59;20.90;88.50
41884;DHT22;27566;50.930;5.328;2023-07-24T05:14:25;20.80;88.20
41884;DHT22;27566;50.930;5.328;2023-07-24T05:16:51;20.70;88.30
41884;DHT22;27566;50.930;5.328;2023-07-24T05:19:17;20.50;88.10
41884;DHT22;27566;50.930;5.328;2023-07-24T05:21:43;20.40;88.40
41884;DHT22;27566;50.930;5.328;2023-07-24T05:24:09;20.20;89.20
41884;DHT22;27566;50.930;5.328;2023-07-24T05:26:34;20.10;89.50
41884;DHT22;27566;50.930;5.328;2023-07-24T05:29:00;19.90;90.30
41884;DHT22;27566;50.930;5.328;2023-07-24T05:31:26;19.80;90.30
41884;DHT22;27566;50.930;5.328;2023-07-24T05:33:52;19.70;90.50
41884;DHT22;27566;50.930;5.328;2023-07-24T05:36:17;19.60;90.70
41884;DHT22;27566;50.930;5.328;2023-07-24T05:38:43;19.40;91.30
41884;DHT22;27566;50.930;5.328;2023-07-24T05:41:09;19.40;91.20
41884;DHT22;27566;50.930;5.328;2023-07-24T05:43:34;19.30;91.30
41884;DHT22;27566;50.930;5.328;2023-07-24T05:46:00;19.30;91.50
41884;DHT22;27566;50.930;5.328;2023-07-24T05:48:26;19.30;91.60
41884;DHT22;27566;50.930;5.328;2023-07-24T05:50:52;19.30;91.70
41884;DHT22;27566;50.930;5.328;2023-07-24T05:53:17;19.30;91.90
41884;DHT22;27566;50.930;5.328;2023-07-24T05:55:43;19.30;91.90
41884;DHT22;27566;50.930;5.328;2023-07-24T05:58:09;19.40;92.00
41884;DHT22;27566;50.930;5.328;2023-07-24T06:00:35;19.40;92.10
41884;DHT22;27566;50.930;5.328;2023-07-24T06:03:05;19.60;92.20
41884;DHT22;27566;50.930;5.328;2023-07-24T06:05:30;19.70;92.30
41884;DHT22;27566;50.930;5.328;2023-07-24T06:07:56;19.90;92.30
41884;DHT22;27566;50.930;5.328;2023-07-24T06:10:22;20.00;92.10
41884;DHT22;27566;50.930;5.328;2023-07-24T06:12:48;20.10;92.00
41884;DHT22;27566;50.930;5.328;2023-07-24T06:15:13;20.20;92.10
41884;DHT22;27566;50.930;5.328;2023-07-24T06:17:39;20.20;92.00
41884;DHT22;27566;50.930;5.328;2023-07-24T06:20:06;20.30;91.90
41884;DHT22;27566;50.930;5.328;2023-07-24T06:22:32;20.40;91.90
41884;DHT22;27566;50.930;5.328;2023-07-24T06:24:58;20.50;92.00
41884;DHT22;27566;50.930;5.328;2023-07-24T06:27:24;20.90;91.80
41884;DHT22;27566;50.930;5.328;2023-07-24T06:29:49;21.00;91.60
41884;DHT22;27566;50.930;5.328;2023-07-24T06:32:15;21.10;91.60
41884;DHT22;27566;50.930;5.328;2023-07-24T06:34:41;21.20;91.50
41884;DHT22;27566;50.930;5.328;2023-07-24T06:37:07;21.30;91.40
41884;DHT22;27566;50.930;5.328;2023-07-24T06:39:32;21.30;91.10
41884;DHT22;27566;50.930;5.328;2023-07-24T06:41:58;21.10;90.70
41884;DHT22;27566;50.930;5.328;2023-07-24T06:44:24;21.00;90.70
41884;DHT22;27566;50.930;5.328;2023-07-24T06:46:50;20.90;90.70
41884;DHT22;27566;50.930;5.328;2023-07-24T06:49:16;20.70;90.50
41884;DHT22;27566;50.930;5.328;2023-07-24T06:51:41;20.60;90.50
41884;DHT22;27566;50.930;5.328;2023-07-24T06:54:07;20.50;90.70
41884;DHT22;27566;50.930;5.328;2023-07-24T06:56:33;20.40;90.90
41884;DHT22;27566;50.930;5.328;2023-07-24T06:58:59;20.40;90.80
41884;DHT22;27566;50.930;5.328;2023-07-24T07:01:25;20.30;90.60
41884;DHT22;27566;50.930;5.328;2023-07-24T07:03:50;20.20;90.90
41884;DHT22;27566;50.930;5.328;2023-07-24T07:06:16;20.30;91.10
41884;DHT22;27566;50.930;5.328;2023-07-24T07:08:42;20.40;91.10
41884;DHT22;27566;50.930;5.328;2023-07-24T07:11:08;20.50;91.20
41884;DHT22;27566;50.930;5.328;2023-07-24T07:13:34;20.60;91.00
41884;DHT22;27566;50.930;5.328;2023-07-24T07:15:59;20.60;91.00
41884;DHT22;27566;50.930;5.328;2023-07-24T07:18:25;20.80;91.20
41884;DHT22;27566;50.930;5.328;2023-07-24T07:20:52;21.30;91.30
41884;DHT22;27566;50.930;5.328;2023-07-24T07:23:19;21.70;90.40
41884;DHT22;27566;50.930;5.328;2023-07-24T07:25:45;22.10;90.10
41884;DHT22;27566;50.930;5.328;2023-07-24T07:28:15;22.30;89.00
41884;DHT22;27566;50.930;5.328;2023-07-24T07:30:42;22.80;87.60
41884;DHT22;27566;50.930;5.328;2023-07-24T07:33:08;23.10;87.50
41884;DHT22;27566;50.930;5.328;2023-07-24T07:35:35;23.30;86.70
41884;DHT22;27566;50.930;5.328;2023-07-24T07:38:01;23.50;87.00
41884;DHT22;27566;50.930;5.328;2023-07-24T07:40:28;23.70;86.00
41884;DHT22;27566;50.930;5.328;2023-07-24T07:42:54;24.00;84.70
41884;DHT22;27566;50.930;5.328;2023-07-24T07:45:21;24.00;85.00
41884;DHT22;27566;50.930;5.328;2023-07-24T07:47:47;24.00;84.60
41884;DHT22;27566;50.930;5.328;2023-07-24T07:50:12;24.00;84.30
41884;DHT22;27566;50.930;5.328;2023-07-24T07:52:39;24.20;84.60
41884;DHT22;27566;50.930;5.328;2023-07-24T07:55:10;24.50;83.60
41884;DHT22;27566;50.930;5.328;2023-07-24T07:57:37;24.70;82.40
41884;DHT22;27566;50.930;5.328;2023-07-24T08:00:04;25.00;82.10
41884;DHT22;27566;50.930;5.328;2023-07-24T08:02:29;25.40;81.40
41884;DHT22;27566;50.930;5.328;2023-07-24T08:04:57;25.50;79.80
41884;DHT22;27566;50.930;5.328;2023-07-24T08:07:23;25.60;79.00
41884;DHT22;27566;50.930;5.328;2023-07-24T08:09:52;25.70;78.90
41884;DHT22;27566;50.930;5.328;2023-07-24T08:12:18;26.00;76.90
41884;DHT22;27566;50.930;5.328;2023-07-24T08:14:44;26.00;75.80
41884;DHT22;27566;50.930;5.328;2023-07-24T08:17:10;25.90;75.10
41884;DHT22;27566;50.930;5.328;2023-07-24T08:19:35;26.00;75.50
41884;DHT22;27566;50.930;5.328;2023-07-24T08:22:01;26.10;75.30
41884;DHT22;27566;50.930;5.328;2023-07-24T08:24:27;26.20;75.80
41884;DHT22;27566;50.930;5.328;2023-07-24T08:26:52;26.20;74.30
41884;DHT22;27566;50.930;5.328;2023-07-24T08:29:18;26.30;74.00
41884;DHT22;27566;50.930;5.328;2023-07-24T08:31:44;26.50;74.40
41884;DHT22;27566;50.930;5.328;2023-07-24T08:34:10;26.50;73.70
41884;DHT22;27566;50.930;5.328;2023-07-24T08:36:35;26.30;72.90
41884;DHT22;27566;50.930;5.328;2023-07-24T08:39:03;26.10;72.40
41884;DHT22;27566;50.930;5.328;2023-07-24T08:41:28;25.70;73.10
41884;DHT22;27566;50.930;5.328;2023-07-24T08:43:55;25.50;73.90
41884;DHT22;27566;50.930;5.328;2023-07-24T08:46:21;25.20;74.40
41884;DHT22;27566;50.930;5.328;2023-07-24T08:48:47;25.00;75.50
41884;DHT22;27566;50.930;5.328;2023-07-24T08:51:15;24.90;76.30
41884;DHT22;27566;50.930;5.328;2023-07-24T08:53:43;25.10;76.20
41884;DHT22;27566;50.930;5.328;2023-07-24T08:56:10;25.10;76.40
41884;DHT22;27566;50.930;5.328;2023-07-24T08:58:38;25.20;75.90
41884;DHT22;27566;50.930;5.328;2023-07-24T09:01:05;25.30;76.30
41884;DHT22;27566;50.930;5.328;2023-07-24T09:03:32;25.30;75.50
41884;DHT22;27566;50.930;5.328;2023-07-24T09:05:58;25.20;75.10
41884;DHT22;27566;50.930;5.328;2023-07-24T09:08:38;25.30;75.70
41884;DHT22;27566;50.930;5.328;2023-07-24T09:11:05;25.40;76.50
41884;DHT22;27566;50.930;5.328;2023-07-24T09:13:34;25.40;75.40
41884;DHT22;27566;50.930;5.328;2023-07-24T09:16:00;25.30;75.80
41884;DHT22;27566;50.930;5.328;2023-07-24T09:18:26;25.00;75.00
41884;DHT22;27566;50.930;5.328;2023-07-24T09:20:51;24.70;75.60
41884;DHT22;27566;50.930;5.328;2023-07-24T09:23:26;24.40;77.10
41884;DHT22;27566;50.930;5.328;2023-07-24T09:25:53;24.00;77.50
41884;DHT22;27566;50.930;5.328;2023-07-24T09:28:19;23.70;78.10
41884;DHT22;27566;50.930;5.328;2023-07-24T09:30:54;23.50;79.40
41884;DHT22;27566;50.930;5.328;2023-07-24T09:33:20;23.10;81.40
41884;DHT22;27566;50.930;5.328;2023-07-24T09:35:57;22.80;82.90
41884;DHT22;27566;50.930;5.328;2023-07-24T09:38:23;22.50;83.80
41884;DHT22;27566;50.930;5.328;2023-07-24T09:40:49;22.20;84.90
41884;DHT22;27566;50.930;5.328;2023-07-24T09:43:26;22.00;86.00
41884;DHT22;27566;50.930;5.328;2023-07-24T09:45:53;21.80;86.90
41884;DHT22;27566;50.930;5.328;2023-07-24T09:48:20;21.60;87.40
41884;DHT22;27566;50.930;5.328;2023-07-24T09:50:48;21.50;88.70
41884;DHT22;27566;50.930;5.328;2023-07-24T09:56:04;21.50;90.20
41884;DHT22;27566;50.930;5.328;2023-07-24T09:58:32;21.50;90.00
41884;DHT22;27566;50.930;5.328;2023-07-24T10:00:58;21.30;89.50
41884;DHT22;27566;50.930;5.328;2023-07-24T10:03:25;21.10;89.20
41884;DHT22;27566;50.930;5.328;2023-07-24T10:05:52;20.80;88.70
41884;DHT22;27566;50.930;5.328;2023-07-24T10:08:19;20.40;89.70
41884;DHT22;27566;50.930;5.328;2023-07-24T10:10:45;20.10;90.40
41884;DHT22;27566;50.930;5.328;2023-07-24T10:13:12;20.00;91.00
41884;DHT22;27566;50.930;5.328;2023-07-24T10:15:42;20.00;91.50
41884;DHT22;27566;50.930;5.328;2023-07-24T10:18:09;20.10;91.70
41884;DHT22;27566;50.930;5.328;2023-07-24T10:20:40;20.10;91.60
41884;DHT22;27566;50.930;5.328;2023-07-24T10:23:08;20.10;91.90
41884;DHT22;27566;50.930;5.328;2023-07-24T10:25:36;20.40;92.30
41884;DHT22;27566;50.930;5.328;2023-07-24T10:28:06;20.60;92.60
41884;DHT22;27566;50.930;5.328;2023-07-24T10:30:43;21.10;92.70
41884;DHT22;27566;50.930;5.328;2023-07-24T10:33:20;21.60;92.60
41884;DHT22;27566;50.930;5.328;2023-07-24T10:36:05;22.10;92.10
41884;DHT22;27566;50.930;5.328;2023-07-24T10:38:36;22.40;91.70
41884;DHT22;27566;50.930;5.328;2023-07-24T10:41:03;22.60;91.20
41884;DHT22;27566;50.930;5.328;2023-07-24T10:43:39;22.90;90.80
41884;DHT22;27566;50.930;5.328;2023-07-24T10:46:05;23.00;91.00
41884;DHT22;27566;50.930;5.328;2023-07-24T10:48:30;23.20;90.80
41884;DHT22;27566;50.930;5.328;2023-07-24T10:50:56;23.30;88.60
41884;DHT22;27566;50.930;5.328;2023-07-24T10:53:22;23.10;87.90
41884;DHT22;27566;50.930;5.328;2023-07-24T10:55:50;23.00;88.00
41884;DHT22;27566;50.930;5.328;2023-07-24T10:58:16;22.80;86.80
41884;DHT22;27566;50.930;5.328;2023-07-24T11:00:45;22.50;87.00
41884;DHT22;27566;50.930;5.328;2023-07-24T11:03:13;22.30;87.10
41884;DHT22;27566;50.930;5.328;2023-07-24T11:05:46;22.10;88.00
41884;DHT22;27566;50.930;5.328;2023-07-24T11:08:31;21.90;88.40
41884;DHT22;27566;50.930;5.328;2023-07-24T11:10:58;21.90;88.20
41884;DHT22;27566;50.930;5.328;2023-07-24T11:13:25;21.50;88.30
41884;DHT22;27566;50.930;5.328;2023-07-24T11:15:52;21.20;89.10
41884;DHT22;27566;50.930;5.328;2023-07-24T11:18:19;21.00;90.20
41884;DHT22;27566;50.930;5.328;2023-07-24T11:20:52;21.00;90.70
41884;DHT22;27566;50.930;5.328;2023-07-24T11:23:22;21.20;91.30
41884;DHT22;27566;50.930;5.328;2023-07-24T11:25:54;21.40;91.30
41884;DHT22;27566;50.930;5.328;2023-07-24T11:28:20;21.70;91.60
41884;DHT22;27566;50.930;5.328;2023-07-24T11:30:46;22.00;91.50
41884;DHT22;27566;50.930;5.328;2023-07-24T11:33:15;22.30;91.30
41884;DHT22;27566;50.930;5.328;2023-07-24T11:35:41;22.50;90.90
41884;DHT22;27566;50.930;5.328;2023-07-24T11:38:10;22.80;90.20
41884;DHT22;27566;50.930;5.328;2023-07-24T11:40:41;23.10;89.70
41884;DHT22;27566;50.930;5.328;2023-07-24T11:43:19;23.30;89.80
41884;DHT22;27566;50.930;5.328;2023-07-24T11:45:45;23.50;89.10
41884;DHT22;27566;50.930;5.328;2023-07-24T11:48:14;23.70;87.10
41884;DHT22;27566;50.930;5.328;2023-07-24T11:50:49;23.80;85.70
41884;DHT22;27566;50.930;5.328;2023-07-24T11:53:25;23.90;84.70
41884;DHT22;27566;50.930;5.328;2023-07-24T11:55:53;23.90;84.20
41884;DHT22;27566;50.930;5.328;2023-07-24T11:58:19;23.80;84.20
41884;DHT22;27566;50.930;5.328;2023-07-24T12:00:47;23.80;84.70
41884;DHT22;27566;50.930;5.328;2023-07-24T12:03:20;24.10;85.30
41884;DHT22;27566;50.930;5.328;2023-07-24T12:05:49;24.40;83.80
41884;DHT22;27566;50.930;5.328;2023-07-24T12:08:17;24.60;82.60
41884;DHT22;27566;50.930;5.328;2023-07-24T12:10:45;24.80;81.50
41884;DHT22;27566;50.930;5.328;2023-07-24T12:13:11;25.20;80.80
41884;DHT22;27566;50.930;5.328;2023-07-24T12:15:37;25.70;80.20
41884;DHT22;27566;50.930;5.328;2023-07-24T12:18:06;26.10;78.70
41884;DHT22;27566;50.930;5.328;2023-07-24T12:20:34;26.10;77.40
41884;DHT22;27566;50.930;5.328;2023-07-24T12:23:00;26.00;76.90
41884;DHT22;27566;50.930;5.328;2023-07-24T12:25:26;26.10;76.80
41884;DHT22;27566;50.930;5.328;2023-07-24T12:27:51;26.00;75.60
41884;DHT22;27566;50.930;5.328;2023-07-24T12:30:17;25.80;75.20
41884;DHT22;27566;50.930;5.328;2023-07-24T12:32:44;25.50;75.00
41884;DHT22;27566;50.930;5.328;2023-07-24T12:35:10;25.20;74.90
41884;DHT22;27566;50.930;5.328;2023-07-24T12:37:36;25.00;74.70
41884;DHT22;27566;50.930;5.328;2023-07-24T12:40:02;24.90;75.20
41884;DHT22;27566;50.930;5.328;2023-07-24T12:42:28;25.00;75.50
41884;DHT22;27566;50.930;5.328;2023-07-24T12:44:53;25.00;74.60
41884;DHT22;27566;50.930;5.328;2023-07-24T12:47:19;24.90;75.40
41884;DHT22;27566;50.930;5.328;2023-07-24T12:49:45;24.70;74.80
41884;DHT22;27566;50.930;5.328;2023-07-24T12:52:11;24.40;75.70
41884;DHT22;27566;50.930;5.328;2023-07-24T12:54:37;24.20;76.20
41884;DHT22;27566;50.930;5.328;2023-07-24T12:57:03;23.80;77.60
41884;DHT22;27566;50.930;5.328;2023-07-24T12:59:29;23.60;78.70
41884;DHT22;27566;50.930;5.328;2023-07-24T13:01:55;23.30;81.40
41884;DHT22;27566;50.930;5.328;2023-07-24T13:04:22;23.20;82.90
41884;DHT22;27566;50.930;5.328;2023-07-24T13:06:48;23.40;83.90
41884;DHT22;27566;50.930;5.328;2023-07-24T13:09:14;23.90;84.50
41884;DHT22;27566;50.930;5.328;2023-07-24T13:11:39;24.40;83.10
41884;DHT22;27566;50.930;5.328;2023-07-24T13:14:08;24.80;81.60
41884;DHT22;27566;50.930;5.328;2023-07-24T13:16:35;24.80;80.50
41884;DHT22;27566;50.930;5.328;2023-07-24T13:19:01;24.80;80.30
41884;DHT22;27566;50.930;5.328;2023-07-24T13:21:26;24.70;79.50
41884;DHT22;27566;50.930;5.328;2023-07-24T13:23:52;24.60;79.30
41884;DHT22;27566;50.930;5.328;2023-07-24T13:26:18;24.50;80.60
41884;DHT22;27566;50.930;5.328;2023-07-24T13:28:44;24.50;81.30
41884;DHT22;27566;50.930;5.328;2023-07-24T13:31:17;24.50;81.60
41884;DHT22;27566;50.930;5.328;2023-07-24T13:33:43;24.60;82.00
41884;DHT22;27566;50.930;5.328;2023-07-24T13:36:09;24.60;80.80
41884;DHT22;27566;50.930;5.328;2023-07-24T13:38:35;24.50;79.70
41884;DHT22;27566;50.930;5.328;2023-07-24T13:41:01;24.40;80.20
41884;DHT22;27566;50.930;5.328;2023-07-24T13:43:29;24.40;80.30
41884;DHT22;27566;50.930;5.328;2023-07-24T13:45:55;24.30;79.80
41884;DHT22;27566;50.930;5.328;2023-07-24T13:48:21;24.20;79.00
41884;DHT22;27566;50.930;5.328;2023-07-24T13:50:47;24.20;79.10
41884;DHT22;27566;50.930;5.328;2023-07-24T13:53:12;24.10;79.30
41884;DHT22;27566;50.930;5.328;2023-07-24T13:55:38;23.90;79.60
41884;DHT22;27566;50.930;5.328;2023-07-24T13:58:04;23.90;79.70
41884;DHT22;27566;50.930;5.328;2023-07-24T14:00:30;24.10;79.80
41884;DHT22;27566;50.930;5.328;2023-07-24T14:02:55;24.50;80.00
41884;DHT22;27566;50.930;5.328;2023-07-24T14:05:21;24.90;78.60
41884;DHT22;27566;50.930;5.328;2023-07-24T14:07:47;25.00;77.80
41884;DHT22;27566;50.930;5.328;2023-07-24T14:10:13;25.30;78.30
41884;DHT22;27566;50.930;5.328;2023-07-24T14:12:38;25.60;77.60
41884;DHT22;27566;50.930;5.328;2023-07-24T14:15:04;25.90;76.40
41884;DHT22;27566;50.930;5.328;2023-07-24T14:17:30;25.90;74.50
41884;DHT22;27566;50.930;5.328;2023-07-24T14:19:57;26.00;75.30
41884;DHT22;27566;50.930;5.328;2023-07-24T14:22:23;26.10;72.60
41884;DHT22;27566;50.930;5.328;2023-07-24T14:24:49;26.10;72.90
41884;DHT22;27566;50.930;5.328;2023-07-24T14:27:14;26.10;73.50
41884;DHT22;27566;50.930;5.328;2023-07-24T14:29:40;26.30;74.60
41884;DHT22;27566;50.930;5.328;2023-07-24T14:32:06;26.70;73.30
41884;DHT22;27566;50.930;5.328;2023-07-24T14:34:32;26.80;71.80
41884;DHT22;27566;50.930;5.328;2023-07-24T14:36:58;26.70;68.30
41884;DHT22;27566;50.930;5.328;2023-07-24T14:39:24;26.30;69.30
41884;DHT22;27566;50.930;5.328;2023-07-24T14:41:50;25.80;69.60
41884;DHT22;27566;50.930;5.328;2023-07-24T14:44:15;25.60;69.10
41884;DHT22;27566;50.930;5.328;2023-07-24T14:46:41;25.70;69.70
41884;DHT22;27566;50.930;5.328;2023-07-24T14:49:07;26.10;70.40
41884;DHT22;27566;50.930;5.328;2023-07-24T14:51:33;26.40;68.00
41884;DHT22;27566;50.930;5.328;2023-07-24T14:53:58;26.40;67.20
41884;DHT22;27566;50.930;5.328;2023-07-24T14:56:25;26.30;68.50
41884;DHT22;27566;50.930;5.328;2023-07-24T14:58:50;26.20;68.20
41884;DHT22;27566;50.930;5.328;2023-07-24T15:01:16;26.10;68.40
41884;DHT22;27566;50.930;5.328;2023-07-24T15:03:42;25.80;69.10
41884;DHT22;27566;50.930;5.328;2023-07-24T15:06:07;25.80;67.80
41884;DHT22;27566;50.930;5.328;2023-07-24T15:08:34;25.70;68.50
41884;DHT22;27566;50.930;5.328;2023-07-24T15:11:00;25.60;69.20
41884;DHT22;27566;50.930;5.328;2023-07-24T15:13:26;25.50;68.80
41884;DHT22;27566;50.930;5.328;2023-07-24T15:15:52;25.40;68.20
41884;DHT22;27566;50.930;5.328;2023-07-24T15:18:18;25.20;67.50
41884;DHT22;27566;50.930;5.328;2023-07-24T15:20:43;25.10;68.10
41884;DHT22;27566;50.930;5.328;2023-07-24T15:23:10;24.90;69.50
41884;DHT22;27566;50.930;5.328;2023-07-24T15:25:36;24.90;70.60
41884;DHT22;27566;50.930;5.328;2023-07-24T15:28:01;24.80;69.20
41884;DHT22;27566;50.930;5.328;2023-07-24T15:30:27;24.70;66.00
41884;DHT22;27566;50.930;5.328;2023-07-24T15:32:53;24.60;63.30
41884;DHT22;27566;50.930;5.328;2023-07-24T15:35:19;24.60;67.00
41884;DHT22;27566;50.930;5.328;2023-07-24T15:37:44;24.40;66.50